Simione Nakaci

Recruteur - Rewa
20 Févr 2028
Dimanche
Processus

Personnalité

Adaptabilité (10) Ambition (3) Controverse (6) Loyauté (11) Pression (9) Professionnalisme (19) Sportivité (13) Tempérament (6)

Profil

Style d'entraînement Démocratique
Diplôme Continental A
Détermination 1
Gestion des joueurs 5
Motivation 4
Discipline 2
Satisfaction professionnelle
100%
Fatigue
0%
Rôle Recruteur
Salaire 18.7K p/s
Contrat 14.03.2028

Performance

Comportement Bon
Efficacité de l'entraînement
21%
Développement des joueurs
5%
Prévention des blessures
25%
Mise en place tactique
30%

Événements récents

Négociation de contrat entamée maintenant
A participé à une réunion de recrutement maintenant
Négociation de contrat entamée maintenant
Négociation de contrat entamée maintenant
A évalué un joueur maintenant
Négociation de contrat entamée maintenant
A évalué un joueur maintenant
Négociation de contrat entamée maintenant

Suivi en cours

235
Joueur Club Statut Capacité Confiance Observé Dernière observation Dernier vote
Matías Samaniego Talleres Actif 110 / 101 40% 1 19.02.2028 -
Fidel Tourn Albion Actif 75 / 82 40% 1 19.02.2028 -
Mauro Molina Estudiantes Actif 109 / 120 40% 1 17.02.2028 -
Samuel Peréa Bogota Actif 96 / 103 40% 1 17.02.2028 -
Pieter Jacobsz Perth Glory Actif 94 / 96 40% 5 16.02.2028 -
Jeremi Machado Mineros de Guayana Actif 100 / 83 40% 1 16.02.2028 -
Matías Salerno San Telmo Actif 102 / 120 40% 2 12.02.2028 -
Azat Beysebekov Akzhaiyk Actif 83 / 94 40% 1 12.02.2028 -
Nahuel de Armas Fenix Actif 80 / 86 40% 1 11.02.2028 -
Lucas Sauer Chaco For Ever Actif 93 / 80 40% 1 11.02.2028 -
Nehemías Portillo Colón Actif 76 / 88 40% 1 09.02.2028 -
Diego Opazo Santiago Wanderers Actif 88 / 98 40% 1 09.02.2028 -
Rifat Nurmugamet Shakhter Actif 75 / 75 40% 1 07.02.2028 -
Ignacio Díaz Independiente Actif 92 / 92 40% 1 07.02.2028 -
Agustín Rodríguez Colon Actif 101 / 106 40% 2 06.02.2028 -
Lorenzo Albarracín Instituto Actif 101 / 101 40% 1 06.02.2028 -
Rodrigo Monserrat Colegiales Actif 111 / 91 40% 1 05.02.2028 -
Alan Torterolo Defensor Sporting Actif 90 / 86 40% 1 05.02.2028 -
Bobomurod Bozorov Qizilqum Actif 78 / 89 40% 3 03.02.2028 -
Ariel Castro Wanderers Actif 102 / 90 40% 1 03.02.2028 -
G'anisher Qodirov Shortan Actif 63 / 66 40% 3 02.02.2028 -
Gaspar Padilla Gimnasia y Esgrima Actif 87 / 104 40% 1 02.02.2028 -
Alejo Mainero Estudiantes Actif 93 / 95 40% 2 01.02.2028 -
Diego Robles Union Espanola Actif 65 / 77 40% 3 01.02.2028 -
Leonardo González Colegiales Actif 105 / 107 40% 4 28.01.2028 -
Maximo Ingravidi Colón Actif 99 / 115 40% 4 26.01.2028 -
Leandro Córdoba Racing Actif 86 / 94 40% 1 26.01.2028 -
Marcelo Olivera Estudiantes Actif 88 / 93 40% 1 24.01.2028 -
Luke Vickery Macarthur FC Actif 83 / 99 40% 1 20.01.2028 -
Pablo Viudez Rentistas Actif 101 / 114 40% 3 19.01.2028 -
Angel Uñates Güemes Actif 89 / 90 40% 3 19.01.2028 -
Emiliano Mozzone Deportivo Maldonado Actif 112 / 97 40% 1 18.01.2028 -
Gustavo Rodriguez Valledupar Actif 105 / 94 40% 1 17.01.2028 -
Nicolás Iachetti San Martín SJ Actif 105 / 95 40% 1 17.01.2028 -
Nicolás Ferreyra Gimnasia y Esgrima Actif 126 / 115 40% 6 13.01.2028 -
Feby Eka Putra Persis Actif 76 / 82 40% 1 13.01.2028 -
Jaiden Kucharski Perth Glory Actif 108 / 97 40% 1 10.01.2028 -
Frets Butuan Maluku Utara United Actif 94 / 78 40% 1 10.01.2028 -
Armando Preciado Deportes Quindio Actif 113 / 91 40% 2 07.01.2028 -
Facundo Vigo Atenas Actif 86 / 92 40% 1 07.01.2028 -
Nicolás Moreno San Martín Actif 93 / 103 40% 4 05.01.2028 -
Gabriel Altamirano Almirante Brown Actif 113 / 112 40% 1 05.01.2028 -
Ilham Udin Armayn PSBS Biak Actif 70 / 95 40% 1 03.01.2028 -
Marco Miori Alvarado Actif 102 / 100 40% 1 03.01.2028 -
Christopher Naranayanan Tailevu Naitasiri Actif 54 / 61 44% 1 02.01.2028 -
Nahuel Frascone Arsenal Actif 114 / 101 40% 2 01.01.2028 -
Iván Fernández Colegiales Actif 91 / 92 40% 5 31.12.2027 -
Gonzalo Larrazábal Deportivo Maldonado Actif 121 / 103 40% 1 31.12.2027 -
Agustín Dávila Rentistas Actif 115 / 84 40% 1 30.12.2027 -
Mauro Schönfeld Morón Refusé 100 / 99 40% 1 28.12.2027 Plus d'infos
Mirko Parassole Agropecuario Argentino Actif 98 / 91 40% 1 26.12.2027 -
Francisco Borda Central Norte Actif 102 / 113 40% 1 26.12.2027 -
Wladimir Cid Santiago Wanderers Actif 74 / 90 40% 1 21.12.2027 -
Juan Francisco Rossel Universidad Catolica Actif 90 / 103 40% 1 21.12.2027 -
Renato Alexandrino Oriental Refusé 101 / 97 40% 2 18.12.2027 Plus d'infos
Eugenio Olivera Talleres Actif 95 / 89 40% 1 12.12.2027 -
Axel Pedrozo Almagro Actif 82 / 87 40% 1 12.12.2027 -
Agustín Díaz Estudiantes de Caracas Actif 90 / 78 40% 3 02.12.2027 -
Dylan Cabral Arsenal Actif 98 / 116 40% 5 01.12.2027 -
Ramiro Jara Racing Actif 104 / 78 40% 1 24.11.2027 -
Santiago Montoya Leones Actif 109 / 80 40% 1 24.11.2027 -
Abel Argañaraz Gimnasia y Esgrima Actif 99 / 95 40% 6 23.11.2027 -
Octávio Silva Artigas Actif 95 / 83 40% 4 23.11.2027 -
Luciano Batista Cerrito Actif 115 / 108 40% 1 21.11.2027 -
Lucas Espinosa Colon Actif 85 / 81 40% 1 20.11.2027 -
Gonzalo Tapia Palestino Actif 88 / 106 40% 1 20.11.2027 -
Rodrigo Fernández Alvarado Actif 92 / 87 40% 3 15.11.2027 -
Leandro Vilte Central Norte Actif 100 / 83 40% 1 13.11.2027 -
Luciano Aberasteguy Deportivo Maldonado Actif 106 / 87 40% 1 08.11.2027 -
Lautaro Díaz San Martín Actif 94 / 100 40% 2 05.11.2027 -
Nicolás Baigorria San Telmo Actif 108 / 94 40% 2 28.10.2027 -
Ifeagwu Ojukwu Atyrau Actif 94 / 106 40% 2 28.10.2027 -
Nahuel Marzochi Colon Actif 84 / 103 40% 1 27.10.2027 -
Pablo da Silveira Cerro Actif 95 / 92 40% 1 25.10.2027 -
Ali Mekawir Navua Actif 63 / 79 40% 2 21.10.2027 -
Bruno Motta Oriental Actif 85 / 92 40% 2 20.10.2027 -
Franco Balmaceda Quilmes Actif 70 / 85 40% 1 19.10.2027 -
Abzal Islamkhan Akzhaiyk Actif 61 / 56 40% 1 18.10.2027 -
Elías Ayala Madryn Actif 98 / 107 40% 1 05.10.2027 -
Luca Duarte Arsenal Actif 101 / 77 40% 2 30.09.2027 -
Cristián Pardo Universidad de Chile Actif 98 / 87 40% 2 30.09.2027 -
Jeremías Silveira Fenix Actif 93 / 96 40% 2 28.09.2027 -
Luis Yanes Real Cartagena Actif 75 / 95 40% 3 26.09.2027 -
Ezequiel Pacheco Chaco For Ever Actif 92 / 94 40% 1 19.09.2027 -
Claudio Campostrini All Boys Refusé 98 / 102 40% 1 19.09.2027 Plus d'infos
Ignacio Sabatini Gimnasia y Esgrima Actif 123 / 97 40% 1 18.09.2027 -
Mauricio Tévez Chaco For Ever Actif 117 / 97 40% 1 18.09.2027 -
Felipe Serrés Wanderers Actif 97 / 90 40% 1 15.09.2027 -
Mateo Serna Aguilas Doradas Actif 83 / 71 40% 1 13.09.2027 -
Bruno Barrionuevo Godoy Cruz Actif 113 / 91 40% 1 11.09.2027 -
Duván Riascos Deportes Quindio Actif 91 / 82 40% 1 10.09.2027 -
Juan Peinipil Madryn Actif 91 / 93 40% 1 28.08.2027 -
David Maguicha Atlanta Actif 113 / 83 40% 1 27.08.2027 -
Federico Acosta Miramar Misiones Actif 106 / 107 40% 1 25.08.2027 -
Santiago Amaral Artigas Actif 102 / 102 40% 1 23.08.2027 -
Ignacio Giacinti Patronato Actif 91 / 103 40% 3 22.08.2027 -
Giancarlo García Deportivo Pereira Actif 77 / 89 40% 1 21.08.2027 -
Yeison Castillo Real Santander Actif 86 / 79 40% 1 17.08.2027 -
Agustín da Rocha Cerrito Actif 83 / 91 40% 1 16.08.2027 -
Matías Mansilla Alvarado Actif 89 / 97 40% 1 05.08.2027 -
Rodrigo Dinocco San Telmo Actif 114 / 85 40% 2 03.08.2027 -
Vincent Sithole Lautoka Actif 73 / 77 40% 1 03.08.2027 -
Álex Perdomo Defensor Sporting Actif 115 / 110 40% 1 02.08.2027 -
Juan Felipe Morales Deportivo Cali Actif 78 / 87 40% 2 01.08.2027 -
Jeremías Castro San Martín SJ Actif 97 / 85 40% 1 31.07.2027 -
José Duarte Tacuarembo Actif 68 / 97 40% 1 29.07.2027 -
Carlos Hormazábal San Luis Actif 111 / 99 40% 1 25.07.2027 -
Alfie James Ventforet Kofu Actif 88 / 102 40% 1 24.07.2027 -
Israel Oladeji Shakhter Actif 97 / 70 40% 1 23.07.2027 -
Danilo Actis Agropecuario Argentino Actif 106 / 92 40% 2 18.07.2027 -
Gabriel Carrasco Los Andes Actif 120 / 111 40% 2 16.07.2027 -
Devan Tanton Aguilas Doradas Actif 77 / 98 40% 2 12.07.2027 -
Lucas Acosta 12 de Octubre Actif 72 / 91 40% 1 11.07.2027 -
Benjamín Garay Los Andes Actif 72 / 73 40% 1 11.07.2027 -
Nicolás Talpone Colón Actif 103 / 119 40% 2 08.07.2027 -
Lucas Camejo River Plate Actif 65 / 105 40% 1 07.07.2027 -
Brayan Castro Bogota Actif 82 / 79 40% 1 05.07.2027 -
Brian Martínez Huracán Actif 84 / 95 40% 1 03.07.2027 -
Enzo Abondetto Central Norte Actif 112 / 107 40% 1 02.07.2027 -
Joaquín Toranzo Sarmiento Actif 71 / 76 40% 1 02.07.2027 -
Nicolás Fuica Deportivo Maldonado Actif 88 / 95 40% 1 01.07.2027 -
Eduardo Esterilla Deportes Quindio Actif 86 / 101 40% 1 29.06.2027 -
Solomon Onyedikachi Nasinu Actif 80 / 80 40% 1 27.06.2027 -
Álvaro Navoni Tigre Actif 103 / 102 40% 1 27.06.2027 -
Fernando Macedo Zulia Actif 87 / 56 40% 1 26.06.2027 -
Ronaldo Royero Depor Actif 76 / 82 40% 1 25.06.2027 -
Santino Duarte Cortulua Actif 68 / 84 40% 1 25.06.2027 -
Thiago Yfran Temperley Actif 105 / 92 40% 2 24.06.2027 -
Chris Donnell Central Coast Mariners Actif 83 / 85 40% 2 24.06.2027 -
Joaquín Postigo Quilmes Actif 94 / 96 40% 1 22.06.2027 -
Mateo Natale Defensores Actif 84 / 114 40% 1 22.06.2027 -
Miguel Pernía Estudiantes de Caracas Actif 71 / 82 40% 1 18.06.2027 -
Federico Amestoy Miramar Misiones Actif 98 / 84 40% 3 17.06.2027 -
Gabriel Risso Patrón Colón Actif 132 / 101 40% 1 14.06.2027 -
Iovan Roganovich Sportivo Trinidense Actif 78 / 83 40% 1 14.06.2027 -
Bautista Casas Medina Alvarado Actif 77 / 79 40% 1 14.06.2027 -
Joshua Inserra Melbourne Victory Actif 73 / 83 40% 1 09.06.2027 -
Kristian Popovic Central Coast Mariners Actif 90 / 90 40% 1 08.06.2027 -
Samuel Posada Leones Actif 96 / 85 40% 1 08.06.2027 -
Misael Tarón Ferro Carril Oeste Actif 119 / 107 40% 1 08.06.2027 -
Iván Vaquero Morón Actif 104 / 123 40% 1 07.06.2027 -
Bailey O'Neil Adelaide United Actif 96 / 96 40% 1 07.06.2027 -
Facundo Infante Talleres Actif 102 / 87 40% 1 04.06.2027 -
Ariel Castellano Alvarado Actif 119 / 89 40% 1 03.06.2027 -
Juan Ramírez Estudiantes de Caracas Actif 79 / 86 40% 1 03.06.2027 -
Barrie Limoki Nadroga Actif 60 / 63 44% 1 02.06.2027 -
Tuimasi Drudru Nasinu Actif 57 / 58 44% 1 01.06.2027 -
Ignacio Mujica Juventud Actif 84 / 90 40% 1 31.01.2027 -
Jonás Ravano Colón Actif 71 / 115 40% 1 24.01.2027 -
Franco Cabrera Rentistas Actif 83 / 101 40% 1 24.01.2027 -
Brayan Marín America de Cali Actif 98 / 100 40% 1 23.01.2027 -
Valentino Álvarez Banfield Actif 83 / 101 40% 1 22.01.2027 -
Santiago Cáceres All Boys Actif 80 / 98 40% 1 22.01.2027 -
Santiago Ojeda Huachipato Actif 106 / 74 40% 1 19.01.2027 -
Benjamín Rivera Santiago Wanderers Actif 81 / 82 40% 1 17.01.2027 -
Mateo Acuña Vélez Actif 72 / 97 40% 1 15.01.2027 -
Diego Vargas San Marcos de Arica Actif 74 / 86 40% 1 13.01.2027 -
Brandon Rossi Boca Juniors Actif 102 / 88 40% 1 11.01.2027 -
Pedro Dacrema Independiente Rivadavia Actif 85 / 87 40% 1 30.12.2026 -
Zane Helweh Macarthur FC Actif 78 / 95 40% 1 28.12.2026 -
Tim Tuiloma Canterbury United Actif 72 / 63 40% 1 27.12.2026 -
León Mancini San Lorenzo Actif 105 / 79 40% 1 26.12.2026 -
Samuel Chamorro Morón Actif 93 / 88 40% 1 25.12.2026 -
Andriano Lebib Perth Glory Actif 85 / 84 40% 1 23.12.2026 -
Franco Casuriaga Cerrito Actif 104 / 105 40% 1 21.12.2026 -
Tiago Marghetich Quilmes Actif 92 / 96 40% 1 21.12.2026 -
Lautaro Occhiuzzi Atlanta Actif 73 / 100 40% 3 19.12.2026 -
Julián Ibarra Llaneros Actif 84 / 89 40% 1 19.12.2026 -
Aldo Rimbelitti Almagro Actif 114 / 110 40% 1 18.12.2026 -
David Alfaro Racing Actif 75 / 79 40% 1 16.12.2026 -
César Galíndez Belgrano Actif 96 / 88 40% 2 15.12.2026 -
Juan Felipe Holguín Envigado Actif 107 / 99 40% 1 15.12.2026 -
Ancizar Aragón Alianza Petrolera Actif 105 / 107 40% 1 13.12.2026 -
Elías Bogado Temperley Actif 83 / 89 40% 1 10.12.2026 -
Faustino Fernández Colon Actif 81 / 97 40% 1 10.12.2026 -
Franco Cabral Jubilo Iwata Actif 70 / 106 40% 1 08.12.2026 -
Sergio Carrasco Cobresal Actif 94 / 76 40% 1 05.12.2026 -
Tomás López River Plate Actif 113 / 113 40% 1 04.12.2026 -
Mateo Martínez Wanderers Actif 105 / 98 40% 1 04.12.2026 -
Hernán Cosme Aguilas Doradas Actif 94 / 86 40% 1 03.12.2026 -
Branco Ripoll Aldosivi Actif 87 / 108 40% 1 25.11.2026 -
Juan Pablo Moreno Defensa y Justicia Actif 83 / 93 40% 1 22.11.2026 -
Luca Landriel Maipú Actif 110 / 103 40% 1 21.11.2026 -
Mateo Ortale Maipú Actif 103 / 120 40% 2 20.11.2026 -
Agustín Ortega Quilmes Actif 98 / 85 40% 1 20.11.2026 -
Santino Chialva Instituto Actif 89 / 76 40% 1 18.11.2026 -
Gonzalo Melgarejo Chaco For Ever Actif 104 / 84 40% 2 17.11.2026 -
Lautaro Fernández Rosario Central Actif 76 / 102 40% 1 16.11.2026 -
Riley Foxe Perth Glory Actif 86 / 92 40% 1 14.11.2026 -
Francisco Arias Gimnasia y Esgrima Actif 79 / 94 40% 1 14.11.2026 -
Santiago Ruiz Cerrito Actif 98 / 85 40% 1 12.11.2026 -
Nicolás Linares Gimnasia y Esgrima Actif 109 / 121 40% 2 07.11.2026 -
Hernán Pedroso Almirante Brown Actif 79 / 97 40% 1 07.11.2026 -
Germán Mansilla Nueva Chicago Actif 110 / 90 40% 1 04.11.2026 -
Ayrton Araóz Barracas Central Actif 74 / 102 40% 1 04.11.2026 -
Fabian Talladira Adelaide United Actif 66 / 86 40% 2 03.11.2026 -
Joan Sosa Defensa y Justicia Actif 74 / 108 40% 1 03.11.2026 -
Alexis Dulón Huracán Actif 118 / 108 40% 1 21.10.2026 -
Román Albornoz Temperley Actif 106 / 87 40% 2 16.10.2026 -
Lautaro Erchego Barracas Central Actif 90 / 77 40% 1 14.10.2026 -
Bruno Hernández Cerro Largo Actif 95 / 92 40% 1 13.10.2026 -
Mauro Isopi Platense Actif 79 / 102 40% 1 12.10.2026 -
José Pérez Portuguesa Actif 108 / 89 40% 2 11.10.2026 -
Mateo Zárate Barracas Central Actif 98 / 79 40% 1 10.10.2026 -
Martín Yapura Deportivo Riestra Actif 69 / 68 40% 1 10.10.2026 -
Bautista Churlis Chacarita Juniors Actif 66 / 72 40% 1 07.10.2026 -
Aimar De Oliveira Chacarita Juniors Actif 104 / 102 40% 1 07.10.2026 -
Diego Vicente La Luz Actif 70 / 80 40% 1 06.10.2026 -
Dante Azaldegui Deportivo Riestra Actif 74 / 102 40% 1 02.10.2026 -
Genaro Rossi San Martín SJ Actif 87 / 112 40% 1 01.10.2026 -
Mateo La Bollita Gimnasia La Plata Actif 66 / 91 40% 1 01.10.2026 -
Cristhofer Mesías Universidad de Concepcion Actif 120 / 101 40% 1 29.09.2026 -
Ignacio Vázquez Lanús Actif 63 / 72 40% 1 28.09.2026 -
Lautaro Cipollone Defensores Unidos Actif 73 / 83 40% 1 19.09.2026 -
Agustín Zabaleta Chaco For Ever Actif 79 / 81 40% 1 18.09.2026 -
German Vallejo Atlético Tucumán Actif 83 / 86 40% 1 18.09.2026 -
Renzo Lo Bianco Sarmiento Actif 76 / 100 40% 1 17.09.2026 -
Ariel González Brizuela Quilmes Actif 56 / 94 40% 1 16.09.2026 -
Bruno Peinipil Madryn Actif 86 / 89 40% 1 13.09.2026 -
Joel Lemos Danubio Actif 83 / 100 40% 1 12.09.2026 -
Franco Sivetti Gimnasia y Tiro Actif 88 / 99 40% 1 12.09.2026 -
Federico Ricca Belgrano Actif 138 / 124 40% 1 11.09.2026 -
Wataru Kamijo Sydney FC Actif 85 / 70 40% 1 11.09.2026 -
Laureano Paez Colón Actif 103 / 86 40% 1 10.09.2026 -
Santiago Izzo Defensores Actif 65 / 74 40% 1 10.09.2026 -
Bahiano Farías Sarmiento Actif 65 / 74 40% 1 09.09.2026 -
Jordan Vale Team Wellington Actif 63 / 62 40% 1 09.09.2026 -
Luciano Vallejo Atlético Tucumán Actif 89 / 105 40% 1 09.09.2026 -
Alejandro Vera Platense Actif 91 / 77 40% 1 06.09.2026 -
Lautaro Gaitán Colón Actif 108 / 110 40% 1 03.09.2026 -
Nezareth Segura Independiente Medellin Actif 96 / 99 40% 1 16.08.2026 -
Lautaro Buteler San Telmo Actif 108 / 76 40% 1 15.08.2026 -
Luigi Cendales Godoy Cruz Actif 79 / 97 40% 1 15.08.2026 -
Sotiri Phillis Adelaide United Actif 87 / 80 40% 1 14.08.2026 -
Jorge Cabello Agropecuario Argentino Actif 108 / 88 40% 1 01.08.2026 -